Time;durP1;ratioP1;P1;durP2;ratioP2;P2;SDS_P1;SDS_P2;PMS_P1;PMS_P2;Temp;Humidity;BMP_temperature;BMP_pressure;BME280_temperature;BME280_humidity;BME280_pressure;Samples;Min_cycle;Max_cycle;Signal;HPM_P1;HPM_P2
2022/01/20 00:03:32;;;;;;;33.40;15.23;;;-2.10;93.90;;;;;;4998869;28;20080;-69
2022/01/20 00:27:26;;;;;;;51.80;26.08;;;-2.50;95.60;;;;;;4997919;28;20076;-68
2022/01/20 00:35:19;;;;;;;39.17;21.77;;;-2.00;94.90;;;;;;5001662;28;20123;-69
2022/01/20 00:37:45;;;;;;;51.28;23.15;;;-1.80;94.80;;;;;;4999402;28;20104;-70
2022/01/20 00:40:12;;;;;;;38.72;22.73;;;-1.80;94.70;;;;;;4998183;28;20117;-68
2022/01/20 00:42:38;;;;;;;41.83;21.67;;;-1.80;95.20;;;;;;4997492;28;20492;-70
2022/01/20 00:45:05;;;;;;;38.65;21.23;;;-1.80;95.00;;;;;;4997031;28;20079;-70
2022/01/20 00:47:30;;;;;;;42.38;19.98;;;-1.60;95.40;;;;;;4999526;28;20164;-70
2022/01/20 00:49:56;;;;;;;35.90;19.83;;;-1.50;95.60;;;;;;5000519;28;20508;-72
2022/01/20 00:52:22;;;;;;;32.78;17.35;;;-1.40;96.10;;;;;;4999486;28;20112;-71
2022/01/20 00:54:48;;;;;;;30.83;17.85;;;-1.20;96.50;;;;;;4997427;28;20540;-72
2022/01/20 00:57:14;;;;;;;28.60;15.23;;;-1.00;96.90;;;;;;4998146;28;20090;-72
2022/01/20 00:59:39;;;;;;;28.33;15.48;;;-0.90;98.20;;;;;;4997812;28;20036;-72
2022/01/20 01:02:07;;;;;;;24.77;14.15;;;-0.70;98.50;;;;;;5002358;28;20043;-70
2022/01/20 01:04:34;;;;;;;25.60;12.90;;;-0.50;98.90;;;;;;4997929;28;20030;-71
2022/01/20 01:09:29;;;;;;;25.13;13.98;;;-0.30;99.00;;;;;;5000155;28;20388;-69
2022/01/20 01:12:00;;;;;;;27.75;14.77;;;-0.20;99.10;;;;;;5003041;28;20088;-69
2022/01/20 01:14:28;;;;;;;28.10;14.30;;;-0.10;99.20;;;;;;4998729;28;20088;-71
2022/01/20 01:24:44;;;;;;;30.73;13.77;;;0.10;99.70;;;;;;5002847;28;20133;-71
2022/01/20 01:27:12;;;;;;;23.50;14.00;;;0.20;99.90;;;;;;5001358;28;20041;-71
2022/01/20 01:32:33;;;;;;;28.13;14.05;;;0.20;99.70;;;;;;5001557;28;20037;-70
2022/01/20 01:35:01;;;;;;;28.73;15.27;;;0.20;99.80;;;;;;5004149;28;20041;-70
2022/01/20 01:40:04;;;;;;;24.85;13.95;;;0.10;99.90;;;;;;4997619;28;20045;-71
2022/01/20 01:42:38;;;;;;;26.42;13.57;;;0.00;99.90;;;;;;5001570;28;20644;-71
2022/01/20 01:45:16;;;;;;;28.45;14.73;;;-0.10;99.90;;;;;;4999175;28;20120;-71
2022/01/20 01:47:42;;;;;;;33.63;15.05;;;-0.10;99.90;;;;;;5001103;28;20076;-72
2022/01/20 01:50:08;;;;;;;28.13;13.73;;;-0.10;99.90;;;;;;5004597;28;20037;-72
2022/01/20 01:52:34;;;;;;;23.10;13.07;;;-0.10;99.90;;;;;;5001619;28;20125;-74
2022/01/20 01:55:01;;;;;;;22.88;13.10;;;0.00;99.90;;;;;;5002588;28;20452;-74
2022/01/20 01:57:27;;;;;;;25.27;13.23;;;0.00;99.90;;;;;;5000374;28;20031;-73
2022/01/20 01:59:54;;;;;;;26.58;13.57;;;0.10;99.90;;;;;;5002395;28;20037;-71
2022/01/20 02:02:20;;;;;;;27.50;14.27;;;0.10;99.90;;;;;;5000424;28;20029;-72
2022/01/20 02:04:47;;;;;;;31.27;14.52;;;0.10;99.90;;;;;;5001920;28;20539;-72
2022/01/20 02:18:36;;;;;;;29.90;14.02;;;0.20;99.90;;;;;;4950128;28;20042;-72
2022/01/20 02:20:38;;;;;;;25.88;12.90;;;0.10;99.90;;;;;;4998629;28;20137;-69
2022/01/20 02:23:04;;;;;;;26.08;13.52;;;-0.10;99.90;;;;;;4999162;28;20088;-70
2022/01/20 02:25:33;;;;;;;29.17;13.88;;;-0.20;99.90;;;;;;5001586;28;20038;-69
2022/01/20 02:28:01;;;;;;;23.85;12.95;;;-0.40;99.90;;;;;;5002500;28;20029;-69
2022/01/20 02:30:28;;;;;;;32.22;13.88;;;-0.40;99.90;;;;;;4998566;28;20566;-70
2022/01/20 02:32:55;;;;;;;24.23;12.70;;;-0.30;99.90;;;;;;4998983;28;20544;-70
2022/01/20 02:35:21;;;;;;;23.27;13.10;;;-0.30;99.90;;;;;;4998388;28;20037;-70
2022/01/20 02:37:49;;;;;;;25.02;13.88;;;-0.30;99.90;;;;;;4999320;28;20056;-70
2022/01/20 02:45:45;;;;;;;25.88;12.45;;;0.00;99.90;;;;;;4998240;28;20467;-70
2022/01/20 02:48:10;;;;;;;28.33;13.88;;;-0.20;99.90;;;;;;5000410;28;20030;-71
2022/01/20 02:50:36;;;;;;;23.90;13.38;;;-0.30;99.90;;;;;;4999316;28;20041;-70
2022/01/20 02:53:02;;;;;;;21.63;13.88;;;-0.30;99.90;;;;;;5000764;28;20049;-70
2022/01/20 02:55:27;;;;;;;25.02;14.13;;;-0.40;99.90;;;;;;5001642;28;20037;-69
2022/01/20 02:57:53;;;;;;;26.85;13.82;;;-0.50;99.90;;;;;;5002855;28;20060;-70
2022/01/20 03:00:19;;;;;;;24.77;12.98;;;-0.60;99.90;;;;;;4998848;28;20041;-70
2022/01/20 03:02:46;;;;;;;30.98;14.20;;;-0.50;99.90;;;;;;4999466;28;20435;-70
2022/01/20 03:05:12;;;;;;;24.50;13.73;;;-0.60;99.90;;;;;;5000508;28;20022;-71
2022/01/20 03:07:38;;;;;;;27.25;12.55;;;-0.70;99.90;;;;;;4998955;28;20064;-70
2022/01/20 03:10:05;;;;;;;28.40;14.18;;;-0.80;99.90;;;;;;4998684;28;20602;-70
2022/01/20 03:12:31;;;;;;;24.75;14.25;;;-0.90;99.90;;;;;;4999389;28;20109;-69
2022/01/20 03:14:57;;;;;;;29.83;14.27;;;-1.00;99.90;;;;;;4999452;28;20105;-69
2022/01/20 03:17:22;;;;;;;26.70;14.77;;;-1.10;99.90;;;;;;4999273;28;20034;-69
2022/01/20 03:19:48;;;;;;;23.77;14.65;;;-1.00;99.90;;;;;;4998079;28;20148;-70
2022/01/20 03:22:14;;;;;;;21.75;13.93;;;-1.10;99.90;;;;;;4999642;28;20034;-70
2022/01/20 03:24:39;;;;;;;28.35;14.40;;;-1.20;99.90;;;;;;5000234;28;20100;-69
2022/01/20 03:27:05;;;;;;;24.63;13.38;;;-1.10;99.90;;;;;;5001598;28;20113;-69
2022/01/20 03:29:31;;;;;;;29.50;13.50;;;-1.00;99.90;;;;;;4999944;28;20048;-70
2022/01/20 03:31:59;;;;;;;26.63;15.88;;;-1.00;99.90;;;;;;4999643;28;20033;-70
2022/01/20 03:34:25;;;;;;;32.75;14.70;;;-1.10;99.90;;;;;;4999421;28;20053;-70
2022/01/20 03:36:52;;;;;;;28.15;13.95;;;-1.10;99.90;;;;;;4999307;28;20034;-70
2022/01/20 03:39:18;;;;;;;23.67;14.52;;;-1.10;99.90;;;;;;4999834;28;20029;-69
2022/01/20 03:41:44;;;;;;;25.42;13.50;;;-1.10;99.90;;;;;;4999302;28;20076;-69
2022/01/20 03:44:09;;;;;;;25.00;13.40;;;-0.90;99.90;;;;;;4998171;28;20105;-70
2022/01/20 03:46:35;;;;;;;27.30;16.92;;;-0.80;99.90;;;;;;4997129;28;20079;-70
2022/01/20 03:49:20;;;;;;;22.42;12.95;;;-0.80;99.90;;;;;;4998030;28;20046;-70
2022/01/20 03:51:46;;;;;;;40.53;21.90;;;-0.80;99.90;;;;;;5001010;28;20053;-70
2022/01/20 03:54:11;;;;;;;21.75;13.52;;;-0.80;99.90;;;;;;4998476;28;20385;-69
2022/01/20 03:56:37;;;;;;;29.83;13.13;;;-0.70;99.90;;;;;;4999574;28;20068;-70
2022/01/20 03:59:03;;;;;;;22.38;12.23;;;-0.60;99.90;;;;;;4998199;28;20116;-70
2022/01/20 04:01:28;;;;;;;22.90;12.10;;;-0.60;99.90;;;;;;4998142;28;20534;-68
2022/01/20 04:03:54;;;;;;;24.08;12.40;;;-0.70;99.90;;;;;;4999141;28;20046;-69
2022/01/20 04:06:20;;;;;;;20.73;12.30;;;-0.70;99.90;;;;;;4999888;28;20025;-70
2022/01/20 04:08:47;;;;;;;25.38;11.77;;;-0.70;99.90;;;;;;4999562;28;20026;-70
2022/01/20 04:11:19;;;;;;;24.67;11.90;;;-0.60;99.90;;;;;;4997349;28;20041;-70
2022/01/20 04:13:44;;;;;;;21.10;11.77;;;-0.50;99.90;;;;;;4998709;28;20793;-70
2022/01/20 04:16:35;;;;;;;20.80;11.88;;;-0.50;99.90;;;;;;4992077;28;20050;-70
2022/01/20 04:19:11;;;;;;;25.05;12.35;;;-0.40;99.90;;;;;;4999614;28;20553;-70
2022/01/20 04:21:38;;;;;;;22.23;12.65;;;-0.40;99.90;;;;;;4998580;28;20042;-70
2022/01/20 04:24:06;;;;;;;23.88;12.18;;;-0.30;99.90;;;;;;4998616;28;20054;-69
2022/01/20 04:26:35;;;;;;;18.38;11.32;;;-0.30;99.90;;;;;;4998868;28;20508;-70
2022/01/20 04:29:03;;;;;;;22.02;12.10;;;-0.20;99.90;;;;;;5000651;28;20042;-70
2022/01/20 04:31:31;;;;;;;19.10;11.43;;;-0.10;99.90;;;;;;5000303;28;20034;-70
2022/01/20 04:33:58;;;;;;;21.83;11.18;;;0.00;99.90;;;;;;4999742;28;20151;-68
2022/01/20 04:36:30;;;;;;;21.70;11.27;;;0.10;99.90;;;;;;5000917;28;20045;-70
2022/01/20 04:38:55;;;;;;;26.90;13.77;;;0.20;99.90;;;;;;4998940;28;20150;-70
2022/01/20 04:41:22;;;;;;;24.02;13.55;;;0.30;99.90;;;;;;4996045;28;20285;-69
2022/01/20 04:43:48;;;;;;;22.17;13.32;;;0.40;99.90;;;;;;5001700;28;20025;-70
2022/01/20 04:46:32;;;;;;;22.30;13.40;;;0.40;99.90;;;;;;5000964;28;20111;-69
2022/01/20 04:57:07;;;;;;;19.83;15.23;;;0.80;99.90;;;;;;5005138;28;20435;-70
2022/01/20 04:59:33;;;;;;;20.52;15.30;;;1.00;99.90;;;;;;5002425;28;20041;-70
2022/01/20 05:01:59;;;;;;;17.85;10.95;;;1.20;99.90;;;;;;5004365;28;20030;-69
2022/01/20 05:04:26;;;;;;;17.48;10.88;;;1.30;99.90;;;;;;5001715;28;20030;-69
2022/01/20 05:06:55;;;;;;;15.05;11.00;;;1.40;99.90;;;;;;5006550;28;20034;-69
2022/01/20 05:09:22;;;;;;;17.55;11.02;;;1.40;99.90;;;;;;5001504;28;20129;-70
2022/01/20 05:11:57;;;;;;;15.27;10.13;;;1.40;99.90;;;;;;5001689;28;20022;-69
2022/01/20 05:14:23;;;;;;;15.00;9.27;;;1.60;99.90;;;;;;5001166;28;21235;-69
2022/01/20 05:16:50;;;;;;;14.40;9.48;;;2.00;99.90;;;;;;5002038;28;20038;-68
2022/01/20 05:19:15;;;;;;;16.75;9.25;;;2.20;99.90;;;;;;5002198;28;20026;-69
2022/01/20 05:21:41;;;;;;;13.15;8.77;;;2.40;99.90;;;;;;5002622;28;20061;-68
2022/01/20 05:24:07;;;;;;;12.05;8.70;;;2.70;99.80;;;;;;5001384;28;20026;-69
2022/01/20 05:26:32;;;;;;;13.82;9.23;;;3.00;98.90;;;;;;5000562;28;20026;-69
2022/01/20 05:28:58;;;;;;;13.93;8.80;;;3.20;98.60;;;;;;5002354;28;20497;-68
2022/01/20 05:31:23;;;;;;;10.85;8.40;;;3.30;98.50;;;;;;5001480;28;20034;-69
2022/01/20 05:33:49;;;;;;;10.02;7.65;;;3.40;98.40;;;;;;5001872;28;20568;-68
2022/01/20 05:36:15;;;;;;;12.93;9.80;;;3.50;97.90;;;;;;5002118;28;20081;-68
2022/01/20 05:38:40;;;;;;;12.55;9.02;;;3.40;97.70;;;;;;5001212;28;20523;-68
2022/01/20 05:41:06;;;;;;;13.40;9.25;;;3.30;98.20;;;;;;4999937;28;20056;-68
2022/01/20 05:43:32;;;;;;;16.98;10.80;;;3.20;98.30;;;;;;5001345;28;20496;-70
2022/01/20 05:45:58;;;;;;;15.55;9.70;;;3.10;98.60;;;;;;5000271;28;20113;-68
2022/01/20 05:48:34;;;;;;;18.40;10.20;;;2.90;98.80;;;;;;4998412;28;20041;-67
2022/01/20 05:51:01;;;;;;;15.57;10.13;;;2.80;99.00;;;;;;5000535;28;20037;-67
2022/01/20 05:53:27;;;;;;;17.60;11.02;;;2.70;99.10;;;;;;5001037;28;20060;-67
2022/01/20 05:55:53;;;;;;;17.17;10.48;;;2.70;99.20;;;;;;5000819;28;20034;-67
2022/01/20 05:58:22;;;;;;;15.45;10.60;;;2.60;99.20;;;;;;4999458;28;20036;-67
2022/01/20 06:00:48;;;;;;;18.52;11.40;;;2.60;99.30;;;;;;5001365;28;20046;-68
2022/01/20 06:05:59;;;;;;;14.55;10.38;;;2.60;99.30;;;;;;4999327;28;20925;-68
2022/01/20 06:08:26;;;;;;;15.05;10.07;;;2.50;99.30;;;;;;4998426;28;20751;-67
2022/01/20 06:10:52;;;;;;;17.02;10.23;;;2.50;99.40;;;;;;4999720;28;20147;-72
2022/01/20 06:13:17;;;;;;;16.85;11.35;;;2.50;99.50;;;;;;5001078;28;20056;-69
2022/01/20 06:15:43;;;;;;;16.98;10.50;;;2.40;99.70;;;;;;4999666;28;20064;-69
2022/01/20 06:18:13;;;;;;;19.60;10.95;;;2.30;99.60;;;;;;4999299;28;20042;-69
2022/01/20 06:20:40;;;;;;;21.40;11.93;;;2.30;99.80;;;;;;5001994;28;20034;-69
2022/01/20 06:23:09;;;;;;;17.20;11.13;;;2.20;99.90;;;;;;5002695;28;20668;-70
2022/01/20 06:25:36;;;;;;;21.58;11.95;;;2.30;99.90;;;;;;5001209;28;20029;-69
2022/01/20 06:28:02;;;;;;;16.52;11.60;;;2.20;99.90;;;;;;5000688;28;20108;-70
2022/01/20 06:30:29;;;;;;;15.18;10.30;;;2.20;99.90;;;;;;4998509;28;20038;-69
2022/01/20 06:32:58;;;;;;;20.70;11.80;;;2.20;99.90;;;;;;5001928;28;20057;-66
2022/01/20 06:35:24;;;;;;;20.48;11.60;;;2.10;99.90;;;;;;5004046;28;20057;-70
2022/01/20 06:37:50;;;;;;;17.10;10.30;;;2.10;99.90;;;;;;5003221;28;20148;-70
2022/01/20 06:40:16;;;;;;;16.75;10.60;;;2.10;99.90;;;;;;4998254;28;20151;-70
2022/01/20 06:42:42;;;;;;;16.48;10.57;;;2.10;99.90;;;;;;5002165;28;20030;-69
2022/01/20 06:45:11;;;;;;;15.20;10.70;;;2.10;99.90;;;;;;5002296;28;20030;-70
2022/01/20 06:47:37;;;;;;;16.05;10.65;;;2.20;99.90;;;;;;5000124;28;20038;-70
2022/01/20 06:50:04;;;;;;;13.68;10.23;;;2.20;99.90;;;;;;5000144;28;20030;-70
2022/01/20 06:52:29;;;;;;;15.32;10.13;;;2.20;99.90;;;;;;4999927;28;20046;-70
2022/01/20 06:54:56;;;;;;;16.65;10.80;;;2.20;99.90;;;;;;4998168;28;20045;-70
2022/01/20 06:57:22;;;;;;;17.50;10.23;;;2.20;99.90;;;;;;4998258;28;20052;-70
2022/01/20 06:59:48;;;;;;;17.42;10.90;;;2.30;99.90;;;;;;5001247;28;20056;-70
2022/01/20 07:02:14;;;;;;;28.85;16.05;;;2.30;99.90;;;;;;4999728;28;20034;-70
2022/01/20 07:04:40;;;;;;;16.45;9.65;;;2.30;99.90;;;;;;5001999;28;20104;-71
2022/01/20 07:07:07;;;;;;;19.52;10.80;;;2.40;99.90;;;;;;4997971;28;21021;-70
2022/01/20 07:09:33;;;;;;;19.80;11.57;;;2.40;99.90;;;;;;5000204;28;20488;-71
2022/01/20 07:12:03;;;;;;;82.25;35.15;;;2.40;99.90;;;;;;4996714;28;20037;-71
2022/01/20 07:14:30;;;;;;;90.32;42.38;;;2.70;99.80;;;;;;5001787;28;20108;-71
2022/01/20 07:16:56;;;;;;;48.55;26.73;;;2.70;99.60;;;;;;5000218;28;20511;-71
2022/01/20 07:19:21;;;;;;;61.47;32.28;;;2.60;99.30;;;;;;4999185;28;20019;-71
2022/01/20 07:21:47;;;;;;;45.10;24.77;;;2.60;99.60;;;;;;5002558;28;20069;-71
2022/01/20 07:24:13;;;;;;;57.88;30.27;;;2.60;99.30;;;;;;5003266;28;20108;-72
2022/01/20 07:26:38;;;;;;;24.83;13.57;;;2.60;99.40;;;;;;4999498;28;20125;-72
2022/01/20 07:29:04;;;;;;;16.20;11.02;;;2.50;99.60;;;;;;5002156;28;20513;-72
2022/01/20 07:31:30;;;;;;;24.70;15.48;;;2.40;99.90;;;;;;5003508;28;20037;-71
2022/01/20 07:33:56;;;;;;;57.42;30.95;;;2.40;99.90;;;;;;5004559;28;20038;-71
2022/01/20 07:36:22;;;;;;;32.17;18.27;;;2.50;99.90;;;;;;5001030;28;20113;-71
2022/01/20 07:38:48;;;;;;;40.00;24.45;;;2.50;99.80;;;;;;5001819;28;20176;-71
2022/01/20 07:41:13;;;;;;;29.27;19.52;;;2.50;99.90;;;;;;5000151;28;20029;-71
2022/01/20 07:43:40;;;;;;;17.90;11.43;;;2.60;99.60;;;;;;5000038;28;20030;-72
2022/01/20 07:46:06;;;;;;;30.27;20.65;;;2.70;99.60;;;;;;4999902;28;20041;-72
2022/01/20 07:48:32;;;;;;;21.75;13.75;;;2.70;99.60;;;;;;5002592;28;20026;-72
2022/01/20 07:50:57;;;;;;;15.52;10.95;;;2.70;99.50;;;;;;5000671;28;20084;-72
2022/01/20 07:53:23;;;;;;;15.98;9.13;;;2.70;99.50;;;;;;5002142;28;20057;-71
2022/01/20 07:55:50;;;;;;;15.02;7.55;;;2.80;99.70;;;;;;5003153;28;20030;-72
2022/01/20 07:58:15;;;;;;;12.63;7.57;;;2.80;99.20;;;;;;5003092;28;20044;-72
2022/01/20 08:00:41;;;;;;;13.55;8.18;;;2.80;99.00;;;;;;5001917;28;20524;-72
2022/01/20 08:03:07;;;;;;;17.08;8.30;;;2.80;99.20;;;;;;5003790;28;20549;-72
2022/01/20 08:05:33;;;;;;;12.98;7.38;;;2.80;99.40;;;;;;5000395;28;20036;-72
2022/01/20 08:07:58;;;;;;;12.35;8.02;;;2.80;99.60;;;;;;5002430;28;20045;-72
2022/01/20 08:10:24;;;;;;;16.15;7.65;;;2.80;99.70;;;;;;5000850;28;20496;-72
2022/01/20 08:12:50;;;;;;;10.63;7.07;;;2.80;99.90;;;;;;5002978;28;20038;-71
2022/01/20 08:15:16;;;;;;;13.13;7.57;;;2.80;99.90;;;;;;5002488;28;20025;-72
2022/01/20 08:17:43;;;;;;;10.73;7.30;;;2.80;99.90;;;;;;5003454;28;20034;-71
2022/01/20 08:20:09;;;;;;;12.65;9.05;;;2.90;99.90;;;;;;5006624;28;20396;-72
2022/01/20 08:22:36;;;;;;;12.00;7.38;;;2.90;99.90;;;;;;5004836;28;20124;-70
2022/01/20 08:25:04;;;;;;;13.95;8.23;;;2.90;99.90;;;;;;5002980;28;20045;-70
2022/01/20 08:27:30;;;;;;;13.52;9.07;;;2.90;99.90;;;;;;5005765;28;20514;-70
2022/01/20 08:29:55;;;;;;;22.25;13.88;;;2.90;99.90;;;;;;5007506;28;20038;-70
2022/01/20 08:32:21;;;;;;;21.77;13.23;;;3.00;99.90;;;;;;5006326;28;20361;-70
2022/01/20 08:34:47;;;;;;;14.85;10.20;;;3.10;99.90;;;;;;5007625;28;20018;-70
2022/01/20 08:37:12;;;;;;;19.80;12.95;;;3.20;99.90;;;;;;5004819;28;20058;-70
2022/01/20 08:39:44;;;;;;;39.70;28.20;;;3.20;99.90;;;;;;5002461;28;20038;-69
2022/01/20 08:42:10;;;;;;;22.63;16.02;;;3.10;99.90;;;;;;5001612;28;20514;-69
2022/01/20 08:44:37;;;;;;;13.48;10.07;;;3.20;99.90;;;;;;4999224;28;20030;-70
2022/01/20 08:47:09;;;;;;;12.27;8.57;;;3.10;99.90;;;;;;5000660;28;20072;-70
2022/01/20 08:49:35;;;;;;;13.02;8.10;;;3.00;99.90;;;;;;5004242;28;20034;-70
2022/01/20 08:52:00;;;;;;;12.35;7.82;;;2.80;99.90;;;;;;5002467;28;20058;-70
2022/01/20 08:54:26;;;;;;;6.85;4.75;;;2.80;99.90;;;;;;5003679;28;20028;-71
2022/01/20 08:56:53;;;;;;;6.05;5.30;;;2.80;99.90;;;;;;4999296;28;20384;-71
2022/01/20 08:59:19;;;;;;;7.20;5.40;;;2.90;99.90;;;;;;5003567;28;20033;-71
2022/01/20 09:01:45;;;;;;;8.60;5.25;;;3.00;99.90;;;;;;5002960;28;20057;-71
2022/01/20 09:04:10;;;;;;;7.15;5.43;;;3.10;99.90;;;;;;5002661;28;20061;-70
2022/01/20 09:06:36;;;;;;;10.02;5.72;;;3.00;99.90;;;;;;5000639;28;20512;-70
2022/01/20 09:09:03;;;;;;;7.68;5.63;;;3.00;99.90;;;;;;5001752;28;20038;-70
2022/01/20 09:11:37;;;;;;;9.57;5.85;;;3.00;99.90;;;;;;5000497;28;20045;-70
2022/01/20 09:16:48;;;;;;;8.43;5.75;;;2.90;99.90;;;;;;5001766;28;20096;-70
2022/01/20 09:19:17;;;;;;;6.60;4.75;;;2.80;99.90;;;;;;5002515;28;20480;-69
2022/01/20 09:21:44;;;;;;;6.43;4.90;;;2.90;99.90;;;;;;4998606;28;20057;-70
2022/01/20 09:24:10;;;;;;;6.65;5.10;;;2.80;99.90;;;;;;5001977;28;20030;-69
2022/01/20 09:26:35;;;;;;;9.40;7.40;;;2.80;99.90;;;;;;4999456;28;20037;-69
2022/01/20 09:29:02;;;;;;;7.43;5.40;;;2.90;99.90;;;;;;5000627;28;20068;-69
2022/01/20 09:31:30;;;;;;;6.03;4.75;;;2.80;99.90;;;;;;5004397;28;20042;-70
2022/01/20 09:33:56;;;;;;;43.47;32.50;;;2.70;99.90;;;;;;5005961;28;20751;-69
2022/01/20 09:36:22;;;;;;;6.35;5.05;;;2.80;99.90;;;;;;4998827;28;20029;-69
2022/01/20 09:38:48;;;;;;;8.43;5.55;;;2.80;99.90;;;;;;5005106;28;20109;-69
2022/01/20 09:41:15;;;;;;;8.15;6.47;;;2.80;99.90;;;;;;5002100;28;20034;-69
2022/01/20 09:43:40;;;;;;;6.05;5.05;;;2.80;99.90;;;;;;5005384;28;21174;-69
2022/01/20 09:46:07;;;;;;;6.28;5.07;;;2.90;99.90;;;;;;5001265;28;20038;-69
2022/01/20 09:48:33;;;;;;;6.50;5.05;;;2.90;99.90;;;;;;5002792;28;20026;-69
2022/01/20 09:51:00;;;;;;;13.80;12.40;;;3.00;99.90;;;;;;4999333;28;20575;-69
2022/01/20 09:53:27;;;;;;;8.80;5.88;;;3.00;99.90;;;;;;5000199;28;20057;-68
2022/01/20 09:55:54;;;;;;;7.47;5.78;;;3.00;99.90;;;;;;4998166;28;20092;-70
2022/01/20 09:58:19;;;;;;;7.60;4.82;;;3.00;99.90;;;;;;5002916;28;20029;-70
2022/01/20 10:00:47;;;;;;;9.30;4.60;;;3.00;99.90;;;;;;4999713;28;20049;-70
2022/01/20 10:03:15;;;;;;;5.60;4.20;;;3.00;99.90;;;;;;5002233;28;20069;-70
2022/01/20 10:05:47;;;;;;;6.50;4.63;;;3.10;99.90;;;;;;5001219;28;20030;-70
2022/01/20 10:08:21;;;;;;;;;;;3.10;99.90;;;;;;5003779;28;20025;-70
2022/01/20 10:10:49;;;;;;;6.10;4.30;;;3.10;99.90;;;;;;5003363;28;20380;-70
2022/01/20 10:13:30;;;;;;;6.35;4.88;;;3.20;99.90;;;;;;5004208;28;20049;-69
2022/01/20 10:16:10;;;;;;;6.30;4.10;;;3.20;99.90;;;;;;4997647;28;20609;-70
2022/01/20 10:18:50;;;;;;;4.85;3.85;;;3.30;99.90;;;;;;4997515;28;20030;-69
2022/01/20 10:21:17;;;;;;;5.45;4.68;;;3.40;99.90;;;;;;4999933;28;20791;-70
2022/01/20 10:23:47;;;;;;;6.32;4.28;;;3.40;99.90;;;;;;5001600;28;20025;-69
2022/01/20 10:26:19;;;;;;;5.00;4.05;;;3.50;99.90;;;;;;5001006;28;20030;-70
2022/01/20 10:28:47;;;;;;;4.85;3.90;;;3.50;99.90;;;;;;5002153;28;20108;-70
2022/01/20 10:31:12;;;;;;;5.57;3.58;;;3.50;99.90;;;;;;5002631;28;20042;-70
2022/01/20 10:33:46;;;;;;;5.40;4.00;;;3.50;99.90;;;;;;5003383;28;20069;-70
2022/01/20 10:36:13;;;;;;;4.00;3.40;;;3.50;99.90;;;;;;5006159;28;20022;-68
2022/01/20 10:38:57;;;;;;;5.28;3.78;;;3.50;99.90;;;;;;5001658;28;20026;-67
2022/01/20 10:41:31;;;;;;;6.80;3.97;;;3.60;99.90;;;;;;4999415;28;20034;-69
2022/01/20 10:44:06;;;;;;;5.35;3.90;;;3.60;99.90;;;;;;4999285;28;20018;-69
2022/01/20 10:46:51;;;;;;;4.88;3.92;;;3.70;99.90;;;;;;4995813;28;20030;-70
2022/01/20 10:49:17;;;;;;;4.95;3.80;;;3.80;99.90;;;;;;5001899;28;20048;-70
2022/01/20 10:51:54;;;;;;;4.60;3.35;;;3.90;99.90;;;;;;4997910;28;20042;-70
2022/01/20 10:54:20;;;;;;;8.32;3.67;;;4.00;99.90;;;;;;5000766;28;20552;-69
2022/01/20 10:56:59;;;;;;;5.43;3.55;;;4.10;99.90;;;;;;4999669;28;20089;-69
2022/01/20 10:59:25;;;;;;;4.90;3.78;;;4.10;99.90;;;;;;5002614;28;20137;-69
2022/01/20 11:02:09;;;;;;;5.55;4.03;;;4.20;99.90;;;;;;5001217;28;20030;-69
2022/01/20 11:04:40;;;;;;;5.40;4.03;;;4.20;99.90;;;;;;5002583;28;20023;-69
2022/01/20 11:07:08;;;;;;;4.22;3.63;;;4.20;99.90;;;;;;5002931;28;20747;-69
2022/01/20 11:09:38;;;;;;;5.15;3.90;;;4.30;99.90;;;;;;5000708;28;20049;-70
2022/01/20 11:12:04;;;;;;;4.45;3.85;;;4.30;99.90;;;;;;5003669;28;20247;-69
2022/01/20 11:14:41;;;;;;;5.38;3.72;;;4.30;99.90;;;;;;5003791;28;20125;-70
2022/01/20 11:17:08;;;;;;;5.20;3.67;;;4.20;99.90;;;;;;4998803;28;21123;-69
2022/01/20 11:19:36;;;;;;;3.38;3.00;;;4.30;99.90;;;;;;5000415;28;20431;-70
2022/01/20 11:22:06;;;;;;;4.55;3.40;;;4.30;99.90;;;;;;4996235;28;20054;-69
2022/01/20 11:24:32;;;;;;;7.22;4.55;;;4.30;99.90;;;;;;5001764;28;20040;-70
2022/01/20 11:27:00;;;;;;;4.65;3.42;;;4.30;99.90;;;;;;4996824;28;20105;-69
2022/01/20 11:29:49;;;;;;;4.35;3.17;;;4.20;99.90;;;;;;5000715;28;20427;-70
2022/01/20 11:32:35;;;;;;;5.47;3.25;;;4.20;99.90;;;;;;4997681;28;20117;-70
2022/01/20 11:35:04;;;;;;;4.53;3.00;;;4.30;99.90;;;;;;4998237;28;20663;-70
2022/01/20 11:37:34;;;;;;;3.35;3.05;;;4.30;99.90;;;;;;5000906;28;20033;-70
2022/01/20 11:40:15;;;;;;;3.85;3.05;;;4.30;99.90;;;;;;5001322;28;20099;-69
2022/01/20 11:42:42;;;;;;;4.82;3.20;;;4.30;99.90;;;;;;4999172;28;20117;-70
2022/01/20 11:45:24;;;;;;;3.28;2.53;;;4.30;99.90;;;;;;4999575;28;20045;-70
2022/01/20 11:47:50;;;;;;;3.70;2.72;;;4.40;99.90;;;;;;5002904;28;20053;-71
2022/01/20 11:50:18;;;;;;;3.25;2.95;;;4.40;99.90;;;;;;5001739;28;20030;-70
2022/01/20 11:52:43;;;;;;;3.47;2.67;;;4.40;99.90;;;;;;5001652;28;20053;-70
2022/01/20 11:55:14;;;;;;;3.92;3.10;;;4.50;99.90;;;;;;5000924;28;20030;-71
2022/01/20 11:57:40;;;;;;;3.72;2.75;;;4.60;99.80;;;;;;5003388;28;20108;-70
2022/01/20 12:00:28;;;;;;;4.55;3.10;;;4.60;99.90;;;;;;4996718;28;20049;-70
2022/01/20 12:02:54;;;;;;;3.40;2.78;;;4.70;99.90;;;;;;5000145;28;20127;-70
2022/01/20 12:05:26;;;;;;;4.75;3.13;;;4.70;99.70;;;;;;4995141;28;20586;-70
2022/01/20 12:08:04;;;;;;;5.53;3.38;;;4.80;99.90;;;;;;4999727;28;20041;-70
2022/01/20 12:10:30;;;;;;;4.05;2.50;;;4.90;99.70;;;;;;5001328;28;20402;-69
2022/01/20 12:13:10;;;;;;;4.03;2.45;;;5.00;99.20;;;;;;5001892;28;20061;-70
2022/01/20 12:15:47;;;;;;;3.90;2.78;;;5.10;99.80;;;;;;4999637;28;20029;-70
2022/01/20 12:18:13;;;;;;;3.15;2.40;;;5.20;99.20;;;;;;4997938;28;20499;-70
2022/01/20 12:20:39;;;;;;;2.80;2.35;;;5.20;97.40;;;;;;5001768;28;20037;-70
2022/01/20 12:23:05;;;;;;;2.50;2.30;;;5.20;97.70;;;;;;4997725;28;20045;-70
2022/01/20 12:25:33;;;;;;;2.63;2.28;;;5.20;97.20;;;;;;5000490;28;20481;-69
2022/01/20 12:28:17;;;;;;;3.88;2.28;;;5.20;97.10;;;;;;4998006;28;20030;-70
2022/01/20 12:30:47;;;;;;;1.95;1.80;;;5.30;96.60;;;;;;5000903;28;20022;-69
2022/01/20 12:33:15;;;;;;;4.15;2.10;;;5.30;96.70;;;;;;4997979;28;20057;-70
2022/01/20 12:35:43;;;;;;;3.15;1.90;;;5.40;96.70;;;;;;5001517;28;20769;-70
2022/01/20 12:38:16;;;;;;;3.45;2.47;;;5.40;96.00;;;;;;5000849;28;20109;-70
2022/01/20 12:40:42;;;;;;;3.47;2.45;;;5.50;96.60;;;;;;4996017;28;20073;-70
2022/01/20 12:43:08;;;;;;;2.88;2.15;;;5.50;96.60;;;;;;5003299;28;20406;-70
2022/01/20 12:48:18;;;;;;;2.65;2.17;;;5.50;96.10;;;;;;4997326;28;20079;-70
2022/01/20 12:50:56;;;;;;;3.15;2.05;;;5.40;96.30;;;;;;5001035;28;20038;-69
2022/01/20 12:53:42;;;;;;;3.47;2.22;;;5.40;95.40;;;;;;4998130;28;20141;-70
2022/01/20 12:56:12;;;;;;;2.15;1.95;;;5.50;96.30;;;;;;5000818;28;20065;-70
2022/01/20 12:58:52;;;;;;;2.30;1.92;;;5.50;96.10;;;;;;4999513;28;20389;-70
2022/01/20 13:01:20;;;;;;;3.35;2.03;;;5.50;95.70;;;;;;4995502;28;20034;-65
2022/01/20 13:03:46;;;;;;;2.55;2.28;;;5.50;96.40;;;;;;4997276;28;20026;-70
2022/01/20 13:06:22;;;;;;;2.47;2.20;;;5.60;95.70;;;;;;5000902;28;20505;-68
2022/01/20 13:09:06;;;;;;;2.63;2.35;;;5.50;95.90;;;;;;5000339;28;20032;-68
2022/01/20 13:11:53;;;;;;;3.63;2.63;;;5.40;96.40;;;;;;5002979;28;20026;-68
2022/01/20 13:14:19;;;;;;;3.45;2.80;;;5.40;96.60;;;;;;5001300;28;20219;-70
2022/01/20 13:16:56;;;;;;;3.30;2.78;;;5.40;96.40;;;;;;5002919;28;20022;-69
2022/01/20 13:19:33;;;;;;;6.00;3.00;;;5.40;96.90;;;;;;4998878;28;20121;-68
2022/01/20 13:22:00;;;;;;;4.05;3.20;;;5.40;97.20;;;;;;4999909;28;20628;-69
2022/01/20 13:24:28;;;;;;;3.45;2.70;;;5.30;96.90;;;;;;5002732;28;20025;-69
2022/01/20 13:26:54;;;;;;;4.10;2.80;;;5.30;97.20;;;;;;5005119;28;20032;-70
2022/01/20 13:29:22;;;;;;;4.15;2.50;;;5.20;97.00;;;;;;5002686;28;20634;-68
2022/01/20 13:32:00;;;;;;;2.58;2.20;;;5.20;96.80;;;;;;5002505;28;20133;-68
2022/01/20 13:34:26;;;;;;;2.40;2.10;;;5.10;96.40;;;;;;5003211;28;20046;-69
2022/01/20 13:36:56;;;;;;;4.30;2.33;;;5.10;96.50;;;;;;5002971;28;20022;-68
2022/01/20 13:39:40;;;;;;;3.28;2.85;;;5.00;96.90;;;;;;5003473;28;20595;-68
2022/01/20 13:42:11;;;;;;;4.05;2.50;;;5.00;97.10;;;;;;5003037;28;20030;-68
2022/01/20 13:47:22;;;;;;;3.97;2.20;;;4.90;97.30;;;;;;4998217;28;20041;-69
2022/01/20 13:49:53;;;;;;;2.88;2.22;;;4.90;97.30;;;;;;4998955;28;20038;-69
2022/01/20 13:52:20;;;;;;;2.88;1.75;;;4.90;97.10;;;;;;5001749;28;20141;-68
2022/01/20 13:54:53;;;;;;;2.42;1.80;;;5.00;97.20;;;;;;4998739;28;20538;-68
2022/01/20 13:57:20;;;;;;;2.45;1.80;;;4.90;98.10;;;;;;5001617;28;20037;-68
2022/01/20 14:00:10;;;;;;;2.50;1.75;;;4.70;99.30;;;;;;4999273;28;20042;-68
2022/01/20 14:02:36;;;;;;;1.98;1.48;;;4.60;99.80;;;;;;4999786;28;20069;-68
2022/01/20 14:05:02;;;;;;;4.57;1.40;;;4.50;99.70;;;;;;4998513;28;20156;-68
2022/01/20 14:07:27;;;;;;;2.75;1.10;;;4.40;99.90;;;;;;5002114;28;20488;-68
2022/01/20 14:09:53;;;;;;;6.45;1.48;;;4.30;99.90;;;;;;5000058;28;20038;-68